TRA51 EHAM-EINN
Flight info
| Callsign | TRA51 |
|---|---|
| Flight time | 1h 25m |
| Altitude | 40000 |
| Route | BERGI L60 PENIL M144 BAGSO DCT DIGAN DIGAN2E |
| Aircraft | B738/M-SDE2E3FGHIRWXY/LB1 |
Departure
| Time | 2026-04-30 18:55 |
|---|---|
| Airport | Amsterdam Airport Schiphol (EHAM) |
Arrival
| Time | 2026-04-30 20:21 |
|---|---|
| Airport | Shannon Airport (EINN) |
| Time | Latitude | Longitude | Altitude | Speed | Heading |
|---|---|---|---|---|---|
| 2026-04-30 18:19 | 52.30872 | 4.80199 | -2 ft | 0 kts | 176° |
| 2026-04-30 18:45 | 52.30880 | 4.80132 | -2 ft | 8 kts | 308° |
| 2026-04-30 18:45 | 52.30926 | 4.80041 | -2 ft | 11 kts | 299° |
| 2026-04-30 18:45 | 52.30896 | 4.79925 | -2 ft | 12 kts | 227° |
| 2026-04-30 18:46 | 52.30836 | 4.79836 | -2 ft | 12 kts | 221° |
| 2026-04-30 18:46 | 52.30770 | 4.79743 | -2 ft | 13 kts | 221° |
| 2026-04-30 18:46 | 52.30700 | 4.79644 | -2 ft | 14 kts | 221° |
| 2026-04-30 18:46 | 52.30625 | 4.79536 | -2 ft | 15 kts | 221° |
| 2026-04-30 18:47 | 52.30545 | 4.79421 | -2 ft | 16 kts | 221° |
| 2026-04-30 18:47 | 52.30461 | 4.79299 | -2 ft | 17 kts | 221° |
| 2026-04-30 18:47 | 52.30372 | 4.79172 | -2 ft | 17 kts | 221° |
| 2026-04-30 18:47 | 52.30279 | 4.79041 | -2 ft | 18 kts | 220° |
| 2026-04-30 18:48 | 52.30185 | 4.78906 | -2 ft | 16 kts | 221° |
| 2026-04-30 18:48 | 52.30113 | 4.78805 | -2 ft | 12 kts | 223° |
| 2026-04-30 18:48 | 52.30060 | 4.78725 | -2 ft | 5 kts | 225° |
| 2026-04-30 18:48 | 52.30043 | 4.78670 | -2 ft | 6 kts | 256° |
| 2026-04-30 18:49 | 52.30045 | 4.78615 | -2 ft | 0 kts | 294° |
| 2026-04-30 18:50 | 52.30050 | 4.78601 | -2 ft | 3 kts | 304° |
| 2026-04-30 18:50 | 52.30066 | 4.78568 | -2 ft | 5 kts | 309° |
| 2026-04-30 18:51 | 52.30092 | 4.78515 | -3 ft | 8 kts | 302° |
| 2026-04-30 18:51 | 52.30140 | 4.78495 | -4 ft | 9 kts | 28° |
| 2026-04-30 18:51 | 52.30150 | 4.78507 | -4 ft | 0 kts | 39° |
| 2026-04-30 18:51 | 52.30152 | 4.78509 | -4 ft | 0 kts | 39° |
| 2026-04-30 18:52 | 52.30153 | 4.78511 | -4 ft | 0 kts | 41° |
| 2026-04-30 18:52 | 52.30154 | 4.78511 | -4 ft | 0 kts | 41° |
| 2026-04-30 18:52 | 52.30154 | 4.78512 | -4 ft | 0 kts | 41° |
| 2026-04-30 18:55 | 52.30907 | 4.79597 | 165 ft | 160 kts | 43° |
| 2026-04-30 18:55 | 52.31768 | 4.80817 | 1538 ft | 169 kts | 51° |
| 2026-04-30 18:56 | 52.33750 | 4.83573 | 3757 ft | 211 kts | 46° |
| 2026-04-30 18:56 | 52.35276 | 4.84486 | 4228 ft | 264 kts | 8° |
| 2026-04-30 18:56 | 52.37191 | 4.84469 | 5060 ft | 286 kts | 3° |
| 2026-04-30 18:57 | 52.41197 | 4.84465 | 7629 ft | 291 kts | 5° |
| 2026-04-30 18:57 | 52.43231 | 4.84550 | 8844 ft | 294 kts | 6° |
| 2026-04-30 18:57 | 52.45300 | 4.84681 | 10038 ft | 300 kts | 6° |
| 2026-04-30 18:58 | 52.49690 | 4.85033 | 11467 ft | 341 kts | 6° |
| 2026-04-30 18:58 | 52.52112 | 4.84987 | 12295 ft | 358 kts | 354° |
| 2026-04-30 18:58 | 52.54482 | 4.83555 | 12529 ft | 368 kts | 327° |
| 2026-04-30 18:59 | 52.57683 | 4.77104 | 12925 ft | 367 kts | 304° |
| 2026-04-30 19:00 | 52.61279 | 4.65794 | 14787 ft | 377 kts | 291° |
| 2026-04-30 19:00 | 52.62272 | 4.61792 | 15884 ft | 378 kts | 291° |
| 2026-04-30 19:00 | 52.64296 | 4.53672 | 17824 ft | 388 kts | 291° |
| 2026-04-30 19:01 | 52.66388 | 4.45431 | 19596 ft | 396 kts | 291° |
| 2026-04-30 19:01 | 52.67463 | 4.41228 | 20463 ft | 399 kts | 292° |
| 2026-04-30 19:02 | 52.69640 | 4.32726 | 22132 ft | 406 kts | 292° |
| 2026-04-30 19:02 | 52.71856 | 4.24056 | 23742 ft | 414 kts | 292° |
| 2026-04-30 19:03 | 52.74107 | 4.15213 | 24855 ft | 422 kts | 292° |
| 2026-04-30 19:03 | 52.76382 | 4.06238 | 26269 ft | 424 kts | 292° |
| 2026-04-30 19:04 | 52.78677 | 3.97149 | 27404 ft | 434 kts | 291° |
| 2026-04-30 19:04 | 52.80996 | 3.87923 | 28612 ft | 438 kts | 291° |
| 2026-04-30 19:05 | 52.83360 | 3.78478 | 29619 ft | 447 kts | 291° |
| 2026-04-30 19:05 | 52.85757 | 3.68870 | 30607 ft | 453 kts | 291° |
| 2026-04-30 19:06 | 52.88166 | 3.59160 | 31535 ft | 456 kts | 291° |
| 2026-04-30 19:06 | 52.89372 | 3.54284 | 31971 ft | 458 kts | 291° |
| 2026-04-30 19:06 | 52.91803 | 3.44415 | 32477 ft | 470 kts | 291° |
| 2026-04-30 19:07 | 52.94271 | 3.34362 | 33298 ft | 471 kts | 291° |
| 2026-04-30 19:07 | 52.95503 | 3.29328 | 33771 ft | 470 kts | 291° |
| 2026-04-30 19:08 | 52.97919 | 3.19372 | 35016 ft | 459 kts | 289° |
| 2026-04-30 19:08 | 52.99921 | 3.09352 | 35691 ft | 461 kts | 285° |
| 2026-04-30 19:08 | 53.00848 | 3.04259 | 36156 ft | 459 kts | 284° |
| 2026-04-30 19:09 | 53.02702 | 2.94103 | 36981 ft | 458 kts | 286° |
| 2026-04-30 19:09 | 53.03640 | 2.89051 | 37348 ft | 458 kts | 285° |
| 2026-04-30 19:09 | 53.04586 | 2.83995 | 37763 ft | 457 kts | 285° |
| 2026-04-30 19:10 | 53.06463 | 2.73972 | 38663 ft | 453 kts | 285° |
| 2026-04-30 19:10 | 53.08323 | 2.63964 | 39311 ft | 452 kts | 285° |
| 2026-04-30 19:11 | 53.09249 | 2.58958 | 39546 ft | 453 kts | 285° |
| 2026-04-30 19:11 | 53.11042 | 2.48912 | 40155 ft | 450 kts | 280° |
| 2026-04-30 19:11 | 53.11586 | 2.43790 | 40279 ft | 450 kts | 276° |
| 2026-04-30 19:12 | 53.12006 | 2.38626 | 40279 ft | 450 kts | 275° |
| 2026-04-30 19:12 | 53.12627 | 2.30034 | 40280 ft | 449 kts | 275° |
| 2026-04-30 19:13 | 53.14194 | 2.09485 | 40287 ft | 446 kts | 276° |
| 2026-04-30 19:14 | 53.15004 | 1.99254 | 40292 ft | 445 kts | 275° |
| 2026-04-30 19:14 | 53.15808 | 1.89032 | 40285 ft | 445 kts | 275° |
| 2026-04-30 19:15 | 53.16599 | 1.78823 | 40285 ft | 444 kts | 275° |
| 2026-04-30 19:15 | 53.17765 | 1.63569 | 40286 ft | 444 kts | 275° |
| 2026-04-30 19:16 | 53.18535 | 1.53349 | 40281 ft | 444 kts | 275° |
| 2026-04-30 19:17 | 53.19671 | 1.38001 | 40273 ft | 445 kts | 276° |
| 2026-04-30 19:17 | 53.20794 | 1.22632 | 40272 ft | 445 kts | 274° |
| 2026-04-30 19:18 | 53.21894 | 1.07231 | 40271 ft | 446 kts | 275° |
| 2026-04-30 19:19 | 53.22619 | 0.96949 | 40271 ft | 446 kts | 273° |
| 2026-04-30 19:19 | 53.23681 | 0.81573 | 40261 ft | 447 kts | 274° |
| 2026-04-30 19:20 | 53.24383 | 0.71264 | 40263 ft | 447 kts | 273° |
| 2026-04-30 19:21 | 53.25424 | 0.55793 | 40261 ft | 447 kts | 273° |
| 2026-04-30 19:22 | 53.26777 | 0.35141 | 40258 ft | 447 kts | 273° |
| 2026-04-30 19:23 | 53.28738 | 0.04224 | 40254 ft | 447 kts | 274° |
| 2026-04-30 19:24 | 53.30236 | -0.11203 | 40251 ft | 449 kts | 278° |
| 2026-04-30 19:25 | 53.32932 | -0.37021 | 40244 ft | 452 kts | 277° |
| 2026-04-30 19:26 | 53.35023 | -0.57797 | 40246 ft | 453 kts | 277° |
| 2026-04-30 19:27 | 53.36565 | -0.73408 | 40243 ft | 453 kts | 277° |
| 2026-04-30 19:28 | 53.38062 | -0.88958 | 40243 ft | 453 kts | 277° |
| 2026-04-30 19:29 | 53.40101 | -1.09795 | 40241 ft | 453 kts | 277° |
| 2026-04-30 19:30 | 53.42048 | -1.30639 | 40232 ft | 452 kts | 276° |
| 2026-04-30 19:31 | 53.43997 | -1.51481 | 40234 ft | 452 kts | 276° |
| 2026-04-30 19:31 | 53.45425 | -1.67120 | 40219 ft | 452 kts | 277° |
| 2026-04-30 19:32 | 53.46367 | -1.77546 | 40225 ft | 451 kts | 276° |
| 2026-04-30 19:32 | 53.47286 | -1.87958 | 40212 ft | 451 kts | 274° |
| 2026-04-30 19:33 | 53.48184 | -1.98311 | 40214 ft | 451 kts | 276° |
| 2026-04-30 19:33 | 53.49079 | -2.08718 | 40215 ft | 451 kts | 276° |
| 2026-04-30 19:34 | 53.49966 | -2.19144 | 40203 ft | 451 kts | 275° |
| 2026-04-30 19:35 | 53.51289 | -2.34799 | 40195 ft | 451 kts | 275° |
| 2026-04-30 19:35 | 53.52154 | -2.45160 | 40192 ft | 451 kts | 275° |
| 2026-04-30 19:36 | 53.53023 | -2.55660 | 40189 ft | 451 kts | 275° |
| 2026-04-30 19:36 | 53.54295 | -2.71264 | 40180 ft | 452 kts | 275° |
| 2026-04-30 19:37 | 53.55139 | -2.81743 | 40182 ft | 452 kts | 275° |
| 2026-04-30 19:37 | 53.55973 | -2.92229 | 40178 ft | 452 kts | 275° |
| 2026-04-30 19:38 | 53.56799 | -3.02729 | 40173 ft | 453 kts | 275° |
| 2026-04-30 19:38 | 53.57615 | -3.13246 | 40177 ft | 453 kts | 275° |
| 2026-04-30 19:39 | 53.58424 | -3.23781 | 40169 ft | 454 kts | 275° |
| 2026-04-30 19:39 | 53.59225 | -3.34325 | 40151 ft | 454 kts | 275° |
| 2026-04-30 19:40 | 53.60011 | -3.44808 | 40160 ft | 454 kts | 274° |
| 2026-04-30 19:40 | 53.60794 | -3.55374 | 40152 ft | 454 kts | 274° |
| 2026-04-30 19:41 | 53.61568 | -3.65933 | 40164 ft | 454 kts | 274° |
| 2026-04-30 19:41 | 53.62109 | -3.76523 | 40142 ft | 453 kts | 271° |
| 2026-04-30 19:42 | 53.62492 | -3.87111 | 40138 ft | 453 kts | 271° |
| 2026-04-30 19:42 | 53.62929 | -3.97705 | 40131 ft | 452 kts | 271° |
| 2026-04-30 19:43 | 53.63345 | -4.08209 | 40133 ft | 452 kts | 271° |
| 2026-04-30 19:44 | 53.63941 | -4.24050 | 40130 ft | 451 kts | 270° |
| 2026-04-30 19:44 | 53.64328 | -4.34607 | 40127 ft | 451 kts | 270° |
| 2026-04-30 19:45 | 53.64700 | -4.45149 | 40122 ft | 450 kts | 270° |
| 2026-04-30 19:45 | 53.65062 | -4.55663 | 40126 ft | 449 kts | 270° |
| 2026-04-30 19:46 | 53.65417 | -4.66173 | 40123 ft | 449 kts | 270° |
| 2026-04-30 19:46 | 53.65765 | -4.76684 | 40121 ft | 449 kts | 270° |
| 2026-04-30 19:47 | 53.66105 | -4.87185 | 40115 ft | 449 kts | 270° |
| 2026-04-30 19:47 | 53.66453 | -4.97686 | 40117 ft | 448 kts | 270° |
| 2026-04-30 19:48 | 53.66795 | -5.08183 | 40117 ft | 448 kts | 270° |
| 2026-04-30 19:48 | 53.67120 | -5.18622 | 40117 ft | 448 kts | 270° |
| 2026-04-30 19:49 | 53.67422 | -5.29124 | 40123 ft | 448 kts | 270° |
| 2026-04-30 19:49 | 53.67829 | -5.44876 | 40116 ft | 447 kts | 265° |
| 2026-04-30 19:50 | 53.66750 | -5.55055 | 40118 ft | 439 kts | 247° |
| 2026-04-30 19:50 | 53.64328 | -5.64480 | 40115 ft | 438 kts | 243° |
| 2026-04-30 19:51 | 53.61812 | -5.73824 | 40118 ft | 438 kts | 243° |
| 2026-04-30 19:51 | 53.59334 | -5.83116 | 40113 ft | 438 kts | 243° |
| 2026-04-30 19:52 | 53.56852 | -5.92491 | 40118 ft | 439 kts | 243° |
| 2026-04-30 19:52 | 53.54368 | -6.01869 | 40114 ft | 439 kts | 243° |
| 2026-04-30 19:53 | 53.51871 | -6.11261 | 40115 ft | 440 kts | 243° |
| 2026-04-30 19:53 | 53.49368 | -6.20631 | 40125 ft | 440 kts | 243° |
| 2026-04-30 19:54 | 53.46851 | -6.30017 | 40113 ft | 441 kts | 243° |
| 2026-04-30 19:54 | 53.44324 | -6.39401 | 40113 ft | 442 kts | 243° |
| 2026-04-30 19:55 | 53.41802 | -6.48725 | 40105 ft | 442 kts | 243° |
| 2026-04-30 19:55 | 53.39252 | -6.58116 | 40112 ft | 442 kts | 243° |
| 2026-04-30 19:56 | 53.36696 | -6.67492 | 40103 ft | 443 kts | 243° |
| 2026-04-30 19:56 | 53.34130 | -6.76865 | 40107 ft | 443 kts | 243° |
| 2026-04-30 19:57 | 53.31557 | -6.86229 | 40098 ft | 443 kts | 243° |
| 2026-04-30 19:57 | 53.30264 | -6.90918 | 39981 ft | 445 kts | 243° |
| 2026-04-30 19:57 | 53.28957 | -6.95647 | 39432 ft | 448 kts | 243° |
| 2026-04-30 19:58 | 53.27650 | -7.00368 | 38815 ft | 446 kts | 242° |
| 2026-04-30 19:58 | 53.26345 | -7.05076 | 38054 ft | 445 kts | 242° |
| 2026-04-30 19:58 | 53.25046 | -7.09753 | 37335 ft | 443 kts | 242° |
| 2026-04-30 19:58 | 53.23752 | -7.14401 | 36644 ft | 441 kts | 242° |
| 2026-04-30 19:59 | 53.22460 | -7.19032 | 35938 ft | 439 kts | 241° |
| 2026-04-30 19:59 | 53.21181 | -7.23598 | 35162 ft | 440 kts | 240° |
| 2026-04-30 19:59 | 53.18584 | -7.32858 | 33453 ft | 441 kts | 240° |
| 2026-04-30 20:00 | 53.17278 | -7.37498 | 32534 ft | 442 kts | 240° |
| 2026-04-30 20:00 | 53.15986 | -7.42088 | 31952 ft | 435 kts | 239° |
| 2026-04-30 20:00 | 53.14708 | -7.46624 | 31317 ft | 430 kts | 239° |
| 2026-04-30 20:00 | 53.13441 | -7.51111 | 30710 ft | 424 kts | 239° |
| 2026-04-30 20:01 | 53.10952 | -7.59889 | 29427 ft | 414 kts | 239° |
| 2026-04-30 20:01 | 53.10137 | -7.62754 | 29009 ft | 410 kts | 239° |
| 2026-04-30 20:01 | 53.08520 | -7.68428 | 28217 ft | 403 kts | 238° |
| 2026-04-30 20:02 | 53.06537 | -7.75363 | 27207 ft | 395 kts | 238° |
| 2026-04-30 20:02 | 53.05362 | -7.79470 | 26609 ft | 392 kts | 238° |
| 2026-04-30 20:03 | 53.03034 | -7.87574 | 25381 ft | 386 kts | 238° |
| 2026-04-30 20:03 | 53.01874 | -7.91595 | 24766 ft | 385 kts | 237° |
| 2026-04-30 20:03 | 53.00722 | -7.95589 | 24166 ft | 383 kts | 237° |
| 2026-04-30 20:03 | 52.99572 | -7.99570 | 23574 ft | 381 kts | 237° |
| 2026-04-30 20:04 | 52.98429 | -8.03520 | 22909 ft | 378 kts | 237° |
| 2026-04-30 20:04 | 52.97295 | -8.07439 | 22311 ft | 375 kts | 237° |
| 2026-04-30 20:04 | 52.96172 | -8.11312 | 21755 ft | 370 kts | 237° |
| 2026-04-30 20:05 | 52.93974 | -8.18896 | 20622 ft | 365 kts | 239° |
| 2026-04-30 20:05 | 52.93253 | -8.22979 | 20065 ft | 374 kts | 253° |
| 2026-04-30 20:05 | 52.92480 | -8.31458 | 18968 ft | 370 kts | 255° |
| 2026-04-30 20:06 | 52.92113 | -8.35665 | 18407 ft | 368 kts | 255° |
| 2026-04-30 20:06 | 52.91734 | -8.39846 | 17778 ft | 365 kts | 255° |
| 2026-04-30 20:06 | 52.91345 | -8.43986 | 17195 ft | 362 kts | 255° |
| 2026-04-30 20:06 | 52.90950 | -8.48105 | 16630 ft | 359 kts | 255° |
| 2026-04-30 20:07 | 52.90554 | -8.52159 | 16089 ft | 355 kts | 255° |
| 2026-04-30 20:07 | 52.90157 | -8.56190 | 15547 ft | 353 kts | 255° |
| 2026-04-30 20:07 | 52.89363 | -8.64175 | 14496 ft | 350 kts | 255° |
| 2026-04-30 20:08 | 52.88971 | -8.68095 | 13946 ft | 350 kts | 255° |
| 2026-04-30 20:08 | 52.88573 | -8.72065 | 13342 ft | 349 kts | 255° |
| 2026-04-30 20:08 | 52.88178 | -8.76009 | 12774 ft | 346 kts | 255° |
| 2026-04-30 20:08 | 52.87784 | -8.79929 | 12272 ft | 343 kts | 255° |
| 2026-04-30 20:09 | 52.87393 | -8.83790 | 12075 ft | 338 kts | 255° |
| 2026-04-30 20:09 | 52.86908 | -8.87633 | 11271 ft | 340 kts | 245° |
| 2026-04-30 20:09 | 52.84374 | -8.93875 | 10462 ft | 315 kts | 226° |
| 2026-04-30 20:10 | 52.81768 | -8.99327 | 10166 ft | 290 kts | 226° |
| 2026-04-30 20:10 | 52.80538 | -9.01907 | 10021 ft | 280 kts | 226° |
| 2026-04-30 20:10 | 52.79363 | -9.04381 | 9971 ft | 267 kts | 226° |
| 2026-04-30 20:11 | 52.77009 | -9.09331 | 8911 ft | 274 kts | 227° |
| 2026-04-30 20:11 | 52.75837 | -9.11802 | 8535 ft | 273 kts | 228° |
| 2026-04-30 20:11 | 52.74669 | -9.14269 | 8180 ft | 273 kts | 228° |
| 2026-04-30 20:12 | 52.72367 | -9.19132 | 7509 ft | 268 kts | 229° |
| 2026-04-30 20:12 | 52.71223 | -9.21547 | 7175 ft | 266 kts | 229° |
| 2026-04-30 20:12 | 52.70087 | -9.23942 | 6845 ft | 264 kts | 229° |
| 2026-04-30 20:13 | 52.68954 | -9.26325 | 6505 ft | 263 kts | 230° |
| 2026-04-30 20:13 | 52.67833 | -9.28682 | 6309 ft | 257 kts | 230° |
| 2026-04-30 20:13 | 52.66684 | -9.30840 | 6151 ft | 246 kts | 215° |
| 2026-04-30 20:13 | 52.65160 | -9.31851 | 6016 ft | 233 kts | 184° |
| 2026-04-30 20:14 | 52.63576 | -9.31584 | 5753 ft | 228 kts | 161° |
| 2026-04-30 20:14 | 52.62184 | -9.30372 | 5466 ft | 227 kts | 143° |
| 2026-04-30 20:14 | 52.60946 | -9.28773 | 5185 ft | 226 kts | 141° |
| 2026-04-30 20:14 | 52.59719 | -9.27180 | 4873 ft | 221 kts | 141° |
| 2026-04-30 20:15 | 52.58530 | -9.25643 | 4581 ft | 214 kts | 141° |
| 2026-04-30 20:15 | 52.57377 | -9.24152 | 4286 ft | 207 kts | 139° |
| 2026-04-30 20:15 | 52.56614 | -9.22228 | 4004 ft | 205 kts | 99° |
| 2026-04-30 20:15 | 52.56932 | -9.20002 | 3784 ft | 207 kts | 56° |
| 2026-04-30 20:16 | 52.57857 | -9.18228 | 3556 ft | 206 kts | 52° |
| 2026-04-30 20:16 | 52.58785 | -9.16438 | 3365 ft | 201 kts | 50° |
| 2026-04-30 20:16 | 52.59695 | -9.14778 | 3188 ft | 192 kts | 52° |
| 2026-04-30 20:16 | 52.60530 | -9.13100 | 2950 ft | 187 kts | 54° |
| 2026-04-30 20:17 | 52.61323 | -9.11426 | 2720 ft | 184 kts | 56° |
| 2026-04-30 20:17 | 52.62095 | -9.09777 | 2468 ft | 180 kts | 56° |
| 2026-04-30 20:17 | 52.62851 | -9.08164 | 2225 ft | 176 kts | 57° |
| 2026-04-30 20:17 | 52.63593 | -9.06577 | 1982 ft | 172 kts | 57° |
| 2026-04-30 20:18 | 52.64302 | -9.05067 | 1761 ft | 160 kts | 58° |
| 2026-04-30 20:18 | 52.64953 | -9.03679 | 1572 ft | 145 kts | 58° |
| 2026-04-30 20:18 | 52.65541 | -9.02424 | 1345 ft | 132 kts | 59° |
| 2026-04-30 20:18 | 52.66089 | -9.01253 | 1170 ft | 128 kts | 58° |
| 2026-04-30 20:19 | 52.66637 | -9.00071 | 1008 ft | 131 kts | 58° |
| 2026-04-30 20:19 | 52.67195 | -8.98886 | 822 ft | 130 kts | 54° |
| 2026-04-30 20:19 | 52.67746 | -8.97715 | 620 ft | 126 kts | 54° |
| 2026-04-30 20:19 | 52.68281 | -8.96581 | 427 ft | 125 kts | 53° |
| 2026-04-30 20:20 | 52.68812 | -8.95439 | 266 ft | 126 kts | 54° |
| 2026-04-30 20:20 | 52.69351 | -8.94292 | 101 ft | 127 kts | 54° |
| 2026-04-30 20:20 | 52.69870 | -8.93191 | 39 ft | 113 kts | 52° |
| 2026-04-30 20:20 | 52.70278 | -8.92324 | 32 ft | 78 kts | 52° |
| 2026-04-30 20:21 | 52.70541 | -8.91766 | 26 ft | 51 kts | 52° |
| 2026-04-30 20:21 | 52.70716 | -8.91391 | 26 ft | 29 kts | 52° |
| 2026-04-30 20:21 | 52.70768 | -8.91195 | 24 ft | 14 kts | 125° |
| 2026-04-30 20:21 | 52.70676 | -8.91143 | 23 ft | 15 kts | 169° |
| 2026-04-30 20:22 | 52.70571 | -8.91109 | 24 ft | 16 kts | 169° |
| 2026-04-30 20:22 | 52.70460 | -8.91079 | 22 ft | 16 kts | 170° |
| 2026-04-30 20:22 | 52.70354 | -8.91047 | 22 ft | 15 kts | 169° |
| 2026-04-30 20:22 | 52.70252 | -8.91013 | 22 ft | 15 kts | 168° |
| 2026-04-30 20:23 | 52.70147 | -8.91036 | 22 ft | 16 kts | 198° |
| 2026-04-30 20:23 | 52.70043 | -8.91094 | 22 ft | 15 kts | 201° |